Time;durP1;ratioP1;P1;durP2;ratioP2;P2;SDS_P1;SDS_P2;PMS_P1;PMS_P2;Temp;Humidity;BMP_temperature;BMP_pressure;BME280_temperature;BME280_humidity;BME280_pressure;Samples;Min_cycle;Max_cycle;Signal;HPM_P1;HPM_P2
2024/03/09 00:00:57;;;;;;;0.82;0.35;;;10.30;95.80;;;;;;4181010;28;20049;-62
2024/03/09 00:03:00;;;;;;;0.30;0.30;;;10.30;95.90;;;;;;4180543;28;20052;-65
2024/03/09 00:05:05;;;;;;;0.43;0.43;;;10.30;96.10;;;;;;4180552;28;20045;-61
2024/03/09 00:07:11;;;;;;;0.30;0.10;;;10.30;96.20;;;;;;4180457;28;20128;-61
2024/03/09 00:09:13;;;;;;;0.20;0.10;;;10.20;96.10;;;;;;4180523;28;20423;-62
2024/03/09 00:11:15;;;;;;;0.20;0.20;;;10.30;96.10;;;;;;4180658;28;20060;-64
2024/03/09 00:13:18;;;;;;;0.50;0.35;;;10.20;96.10;;;;;;4181229;28;20098;-61
2024/03/09 00:15:23;;;;;;;0.10;0.10;;;10.30;96.20;;;;;;4180965;28;20049;-61
2024/03/09 00:17:25;;;;;;;0.17;0.17;;;10.30;96.30;;;;;;4180778;28;20084;-64
2024/03/09 00:19:29;;;;;;;8.52;1.27;;;10.20;96.40;;;;;;4163587;28;20432;-61
2024/03/09 00:21:31;;;;;;;0.10;0.10;;;10.20;96.40;;;;;;4180938;28;20128;-61
2024/03/09 00:23:37;;;;;;;0.20;0.20;;;10.20;96.70;;;;;;4181409;28;20049;-62
2024/03/09 00:25:40;;;;;;;0.38;0.20;;;10.20;96.70;;;;;;4163054;28;20415;-61
2024/03/09 00:27:44;;;;;;;0.10;0.10;;;10.10;96.70;;;;;;4180697;28;20056;-62
2024/03/09 00:29:46;;;;;;;0.13;0.13;;;10.10;96.70;;;;;;4180759;28;20071;-62
2024/03/09 00:31:48;;;;;;;0.10;0.10;;;10.10;96.80;;;;;;4180945;28;20110;-70
2024/03/09 00:33:52;;;;;;;0.45;0.20;;;10.10;96.90;;;;;;4180924;28;20121;-62
2024/03/09 00:35:54;;;;;;;0.50;0.23;;;10.10;96.90;;;;;;4180776;28;20047;-63
2024/03/09 00:37:57;;;;;;;0.45;0.45;;;10.10;96.90;;;;;;4181092;28;20136;-63
2024/03/09 00:40:04;;;;;;;0.60;0.60;;;10.00;96.90;;;;;;4180814;28;20488;-68
2024/03/09 00:42:08;;;;;;;0.40;0.40;;;10.00;96.90;;;;;;4183202;28;20103;-64
2024/03/09 00:44:10;;;;;;;0.32;0.30;;;10.00;97.00;;;;;;4184199;28;20056;-63
2024/03/09 00:46:13;;;;;;;1.10;0.40;;;10.00;97.00;;;;;;4183290;28;20049;-61
2024/03/09 00:48:15;;;;;;;0.45;0.43;;;10.00;97.00;;;;;;4183724;28;20048;-63
2024/03/09 00:50:17;;;;;;;0.40;0.20;;;9.90;96.90;;;;;;4183462;28;20140;-62
2024/03/09 00:52:19;;;;;;;0.20;0.20;;;9.90;97.30;;;;;;4183744;28;20402;-62
2024/03/09 00:54:22;;;;;;;0.60;0.40;;;9.80;97.10;;;;;;4183397;28;20484;-62
2024/03/09 00:56:28;;;;;;;0.45;0.35;;;9.80;97.30;;;;;;4183123;28;20052;-63
2024/03/09 00:58:30;;;;;;;0.10;0.10;;;9.90;97.20;;;;;;4165262;28;20052;-61
2024/03/09 01:00:33;;;;;;;0.47;0.40;;;9.80;97.20;;;;;;4183039;28;20045;-62
2024/03/09 01:02:35;;;;;;;0.17;0.17;;;9.80;97.20;;;;;;4183234;28;20476;-61
2024/03/09 01:04:38;;;;;;;0.20;0.20;;;9.80;97.20;;;;;;4165472;28;20046;-62
2024/03/09 01:06:40;;;;;;;0.32;0.20;;;9.80;97.20;;;;;;4183852;28;20456;-63
2024/03/09 01:08:42;;;;;;;1.55;0.30;;;9.80;97.70;;;;;;4183509;28;20049;-62
2024/03/09 01:10:44;;;;;;;0.38;0.25;;;9.80;97.30;;;;;;4183287;28;20051;-61
2024/03/09 01:12:48;;;;;;;0.73;0.30;;;9.90;97.50;;;;;;4183886;28;20424;-62
2024/03/09 01:14:51;;;;;;;4.65;0.55;;;9.90;97.20;;;;;;4183336;28;20111;-61
2024/03/09 01:16:53;;;;;;;0.20;0.20;;;9.90;97.20;;;;;;4183227;28;20045;-62
2024/03/09 01:18:55;;;;;;;0.28;0.28;;;9.90;97.30;;;;;;4183010;28;20044;-62
2024/03/09 01:20:57;;;;;;;0.10;0.10;;;9.80;97.30;;;;;;4183052;28;20049;-63
2024/03/09 01:22:59;;;;;;;0.43;0.38;;;9.80;97.30;;;;;;4183349;28;20045;-61
2024/03/09 01:25:05;;;;;;;0.30;0.30;;;9.80;97.30;;;;;;4183481;28;20254;-62
2024/03/09 01:27:08;;;;;;;0.20;0.20;;;9.80;97.40;;;;;;4182696;28;20053;-55
2024/03/09 01:29:12;;;;;;;0.15;0.15;;;9.80;97.30;;;;;;4182513;28;20055;-56
2024/03/09 01:31:16;;;;;;;0.30;0.10;;;9.80;97.30;;;;;;4182851;28;20045;-55
2024/03/09 01:33:18;;;;;;;0.47;0.30;;;9.80;97.50;;;;;;4182553;28;20967;-54
2024/03/09 01:35:23;;;;;;;0.40;0.20;;;9.70;97.60;;;;;;4182554;28;20132;-56
2024/03/09 01:37:26;;;;;;;0.60;0.30;;;9.70;97.40;;;;;;4182712;28;20072;-54
2024/03/09 01:39:30;;;;;;;2.47;0.20;;;9.70;97.50;;;;;;4182778;28;20049;-55
2024/03/09 01:41:32;;;;;;;0.40;0.35;;;9.70;97.50;;;;;;4182709;28;20077;-56
2024/03/09 01:43:34;;;;;;;0.32;0.20;;;9.80;97.40;;;;;;4182413;28;20491;-55
2024/03/09 01:45:37;;;;;;;0.17;0.13;;;9.70;97.30;;;;;;4182687;28;20326;-56
2024/03/09 01:47:40;;;;;;;0.77;0.20;;;9.70;97.30;;;;;;4182110;28;20049;-55
2024/03/09 01:49:43;;;;;;;0.10;0.10;;;9.70;97.40;;;;;;4182152;28;20067;-56
2024/03/09 01:51:47;;;;;;;0.10;0.10;;;9.70;97.70;;;;;;4182656;28;20051;-55
2024/03/09 01:53:53;;;;;;;0.20;0.20;;;9.70;97.70;;;;;;4182123;28;20459;-55
2024/03/09 01:55:58;;;;;;;0.52;0.38;;;9.70;97.50;;;;;;4182321;28;20049;-55
2024/03/09 01:58:03;;;;;;;0.28;0.20;;;9.80;97.30;;;;;;4181729;28;20110;-55
2024/03/09 02:00:10;;;;;;;0.10;0.10;;;9.70;97.60;;;;;;4182241;28;20111;-55
2024/03/09 02:02:14;;;;;;;0.30;0.30;;;9.80;97.80;;;;;;4182053;28;20053;-61
2024/03/09 02:04:16;;;;;;;0.40;0.20;;;9.80;97.40;;;;;;4182542;28;20049;-55
2024/03/09 02:06:23;;;;;;;0.35;0.20;;;9.80;97.60;;;;;;4182265;28;20812;-55
2024/03/09 02:08:30;;;;;;;0.10;0.10;;;9.80;97.60;;;;;;4181895;28;20049;-55
2024/03/09 02:10:33;;;;;;;1.98;0.60;;;9.80;97.30;;;;;;4181796;28;20057;-56
2024/03/09 02:12:36;;;;;;;0.10;0.10;;;9.80;97.60;;;;;;4181968;28;20048;-56
2024/03/09 02:14:38;;;;;;;0.15;0.10;;;9.80;97.40;;;;;;4181909;28;20073;-55
2024/03/09 02:16:41;;;;;;;0.55;0.55;;;9.80;97.00;;;;;;4181944;28;20037;-55
2024/03/09 02:18:48;;;;;;;0.20;0.20;;;9.70;97.20;;;;;;4181982;28;20044;-56
2024/03/09 02:20:50;;;;;;;0.10;0.10;;;9.70;97.50;;;;;;4181631;28;20045;-55
2024/03/09 02:22:54;;;;;;;0.57;0.40;;;9.80;97.60;;;;;;4181724;28;20075;-56
2024/03/09 02:24:58;;;;;;;0.77;0.30;;;9.80;97.70;;;;;;4181603;28;20053;-55
2024/03/09 02:27:06;;;;;;;0.20;0.17;;;9.70;97.70;;;;;;4163619;28;20049;-55
2024/03/09 02:29:13;;;;;;;0.13;0.13;;;9.60;97.60;;;;;;4181608;28;20484;-55
2024/03/09 02:31:16;;;;;;;0.28;0.20;;;9.60;97.40;;;;;;4163755;28;20105;-55
2024/03/09 02:33:19;;;;;;;3.28;0.70;;;9.60;97.30;;;;;;4181632;28;20115;-55
2024/03/09 02:35:21;;;;;;;1.52;0.30;;;9.60;97.20;;;;;;4181523;28;20045;-56
2024/03/09 02:37:24;;;;;;;0.20;0.20;;;9.50;97.40;;;;;;4181887;28;20418;-55
2024/03/09 02:39:27;;;;;;;0.10;0.10;;;9.60;97.60;;;;;;4181603;28;20439;-56
2024/03/09 02:41:32;;;;;;;4.65;1.35;;;9.50;97.60;;;;;;4181197;28;20044;-55
2024/03/09 02:43:36;;;;;;;1.30;0.63;;;9.50;97.40;;;;;;4181711;28;20452;-55
2024/03/09 02:45:39;;;;;;;0.30;0.30;;;9.50;97.40;;;;;;4181938;28;20376;-56
2024/03/09 02:47:41;;;;;;;1.08;0.50;;;9.50;97.50;;;;;;4181869;28;20424;-60
2024/03/09 02:49:44;;;;;;;1.10;0.40;;;9.40;97.50;;;;;;4181495;28;20073;-55
2024/03/09 02:51:46;;;;;;;0.28;0.22;;;9.40;98.20;;;;;;4181649;28;20048;-55
2024/03/09 02:53:52;;;;;;;0.45;0.30;;;9.40;97.70;;;;;;4181538;28;20083;-55
2024/03/09 02:55:54;;;;;;;1.27;0.95;;;9.30;97.90;;;;;;4181540;28;20041;-55
2024/03/09 02:57:58;;;;;;;8.52;0.60;;;9.30;98.10;;;;;;4181021;28;20103;-55
2024/03/09 03:00:00;;;;;;;0.47;0.47;;;9.30;98.00;;;;;;4164409;28;20045;-62
2024/03/09 03:02:03;;;;;;;0.40;0.40;;;9.30;98.20;;;;;;4182934;28;20447;-56
2024/03/09 03:04:06;;;;;;;0.60;0.40;;;9.20;98.00;;;;;;4182257;28;20049;-55
2024/03/09 03:06:08;;;;;;;1.95;0.63;;;9.30;98.00;;;;;;4180841;28;20056;-56
2024/03/09 03:08:11;;;;;;;3.53;0.68;;;9.30;98.00;;;;;;4181274;28;20075;-56
2024/03/09 03:10:15;;;;;;;0.20;0.10;;;9.30;98.00;;;;;;4180657;28;20063;-55
2024/03/09 03:12:17;;;;;;;0.32;0.32;;;9.20;98.10;;;;;;4181036;28;20064;-56
2024/03/09 03:14:21;;;;;;;0.90;0.30;;;9.20;98.40;;;;;;4181006;28;20427;-55
2024/03/09 03:16:28;;;;;;;1.38;0.30;;;9.20;98.30;;;;;;4181177;28;20487;-55
2024/03/09 03:18:30;;;;;;;0.52;0.40;;;9.20;98.10;;;;;;4180098;28;20463;-55
2024/03/09 03:20:33;;;;;;;0.20;0.20;;;9.10;98.40;;;;;;4181770;28;20048;-55
2024/03/09 03:22:38;;;;;;;0.30;0.30;;;9.20;98.40;;;;;;4181509;28;20045;-55
2024/03/09 03:24:40;;;;;;;0.28;0.25;;;9.10;98.60;;;;;;4181734;28;20053;-55
2024/03/09 03:26:46;;;;;;;1.50;0.85;;;9.10;98.50;;;;;;4181109;28;20103;-56
2024/03/09 03:28:50;;;;;;;0.30;0.20;;;9.10;98.30;;;;;;4179729;28;20040;-55
2024/03/09 03:30:53;;;;;;;2.55;0.30;;;9.20;98.90;;;;;;4180757;28;20443;-55
2024/03/09 03:32:56;;;;;;;0.68;0.32;;;9.10;98.30;;;;;;4180608;28;20534;-55
2024/03/09 03:34:58;;;;;;;0.28;0.28;;;9.10;98.10;;;;;;4180843;28;20114;-55
2024/03/09 03:37:00;;;;;;;0.20;0.20;;;9.10;98.50;;;;;;4180842;28;20405;-55
2024/03/09 03:39:04;;;;;;;0.50;0.30;;;9.20;98.50;;;;;;4180605;28;20053;-55
2024/03/09 03:41:08;;;;;;;0.10;0.10;;;9.20;98.50;;;;;;4180147;28;20052;-55
2024/03/09 03:43:10;;;;;;;2.28;0.40;;;9.20;98.50;;;;;;4179219;28;20131;-55
2024/03/09 03:45:14;;;;;;;0.30;0.30;;;9.20;98.30;;;;;;4180823;28;20049;-56
2024/03/09 03:47:18;;;;;;;0.20;0.20;;;9.20;98.20;;;;;;4181042;28;20041;-57
2024/03/09 03:49:22;;;;;;;0.20;0.10;;;9.10;98.40;;;;;;4180521;28;20045;-55
2024/03/09 03:51:24;;;;;;;0.20;0.20;;;9.10;98.30;;;;;;4179235;28;20470;-55
2024/03/09 03:53:27;;;;;;;0.10;0.10;;;9.10;98.30;;;;;;4180596;28;20106;-55
2024/03/09 03:55:29;;;;;;;0.20;0.20;;;9.10;98.30;;;;;;4180283;28;20056;-55
2024/03/09 03:57:31;;;;;;;0.10;0.00;;;9.00;98.40;;;;;;4180772;28;20041;-55
2024/03/09 03:59:34;;;;;;;0.38;0.28;;;9.10;98.50;;;;;;4180308;28;20437;-55
2024/03/09 04:01:36;;;;;;;0.10;0.10;;;9.10;98.60;;;;;;4179111;28;20059;-55
2024/03/09 04:03:40;;;;;;;0.35;0.10;;;9.00;98.30;;;;;;4180409;28;20458;-55
2024/03/09 04:05:42;;;;;;;0.68;0.43;;;9.00;98.30;;;;;;4180481;28;20080;-55
2024/03/09 04:07:44;;;;;;;0.20;0.20;;;9.00;98.20;;;;;;4180097;28;20079;-55
2024/03/09 04:09:46;;;;;;;0.63;0.63;;;9.10;98.40;;;;;;4179664;28;20455;-59
2024/03/09 04:11:49;;;;;;;0.28;0.28;;;9.00;98.20;;;;;;4180278;28;20049;-55
2024/03/09 04:13:51;;;;;;;0.20;0.20;;;9.00;98.10;;;;;;4179986;28;20041;-55
2024/03/09 04:15:57;;;;;;;0.10;0.10;;;9.00;98.30;;;;;;4179945;28;20052;-55
2024/03/09 04:18:02;;;;;;;0.10;0.10;;;9.10;98.10;;;;;;4162381;28;20052;-55
2024/03/09 04:20:08;;;;;;;0.20;0.20;;;9.00;98.40;;;;;;4180407;28;20064;-55
2024/03/09 04:22:12;;;;;;;0.28;0.10;;;9.00;98.20;;;;;;4180521;28;20112;-55
2024/03/09 04:24:14;;;;;;;0.10;0.10;;;9.10;98.20;;;;;;4179704;28;20056;-54
2024/03/09 04:26:17;;;;;;;0.22;0.22;;;9.10;98.10;;;;;;4162558;28;20597;-54
2024/03/09 04:28:20;;;;;;;0.40;0.30;;;9.00;98.10;;;;;;4180417;28;20462;-55
2024/03/09 04:30:23;;;;;;;;;;;9.00;98.20;;;;;;4180818;28;20124;-56
2024/03/09 04:32:27;;;;;;;0.10;0.10;;;9.00;98.10;;;;;;4180306;28;20271;-55
2024/03/09 04:34:33;;;;;;;0.20;0.20;;;9.00;98.10;;;;;;4180034;28;20132;-55
2024/03/09 04:36:37;;;;;;;0.10;0.10;;;9.00;98.20;;;;;;4162275;28;20433;-55
2024/03/09 04:38:39;;;;;;;0.10;0.10;;;9.00;98.20;;;;;;4179946;28;20399;-55
2024/03/09 04:40:48;;;;;;;0.47;0.47;;;9.00;98.20;;;;;;4180065;28;20045;-55
2024/03/09 04:42:52;;;;;;;0.65;0.20;;;9.00;98.30;;;;;;4180152;28;20092;-55
2024/03/09 04:44:54;;;;;;;0.65;0.55;;;8.90;98.30;;;;;;4179754;28;20041;-55
2024/03/09 04:46:56;;;;;;;0.30;0.30;;;9.00;98.40;;;;;;4180130;28;20053;-55
2024/03/09 04:48:58;;;;;;;1.17;0.22;;;8.90;98.30;;;;;;4180210;28;20049;-55
2024/03/09 04:51:00;;;;;;;0.03;0.03;;;8.90;98.20;;;;;;4180183;28;20051;-56
2024/03/09 04:53:05;;;;;;;0.10;0.10;;;9.00;98.00;;;;;;4180198;28;20106;-55
2024/03/09 04:55:09;;;;;;;0.00;0.00;;;9.00;98.10;;;;;;4180893;28;20045;-55
2024/03/09 04:57:17;;;;;;;0.15;0.15;;;9.00;98.20;;;;;;4180652;28;20480;-54
2024/03/09 04:59:19;;;;;;;0.10;0.10;;;9.00;97.90;;;;;;4180111;28;20586;-55
2024/03/09 05:01:21;;;;;;;0.40;0.40;;;8.90;98.20;;;;;;4180050;28;20064;-56
2024/03/09 05:03:23;;;;;;;0.03;0.03;;;8.90;98.10;;;;;;4180220;28;20045;-55
2024/03/09 05:05:31;;;;;;;0.45;0.17;;;9.00;98.30;;;;;;4180528;28;20052;-56
2024/03/09 05:07:33;;;;;;;11.70;0.95;;;9.00;98.10;;;;;;4179986;28;20045;-55
2024/03/09 05:09:40;;;;;;;1.20;0.52;;;9.00;98.10;;;;;;4180039;28;20065;-56
2024/03/09 05:11:42;;;;;;;0.20;0.20;;;9.00;98.10;;;;;;4179983;28;20053;-56
2024/03/09 05:13:44;;;;;;;0.10;0.10;;;8.90;98.20;;;;;;4179731;28;20041;-55
2024/03/09 05:15:50;;;;;;;0.55;0.30;;;8.90;98.50;;;;;;4180247;28;20511;-56
2024/03/09 05:17:52;;;;;;;0.10;0.10;;;9.00;98.30;;;;;;4180213;28;20542;-56
2024/03/09 05:19:55;;;;;;;0.10;0.10;;;9.00;98.30;;;;;;4179940;28;20075;-56
2024/03/09 05:21:57;;;;;;;0.10;0.10;;;9.00;98.20;;;;;;4179523;28;20064;-55
2024/03/09 05:23:59;;;;;;;0.17;0.17;;;9.00;98.10;;;;;;4162142;28;20049;-55
2024/03/09 05:26:05;;;;;;;0.20;0.20;;;9.00;98.20;;;;;;4179833;28;20616;-55
2024/03/09 05:28:11;;;;;;;0.10;0.10;;;9.00;98.20;;;;;;4180351;28;20148;-56
2024/03/09 05:30:15;;;;;;;0.50;0.30;;;9.00;98.10;;;;;;4164878;28;20084;-55
2024/03/09 05:32:18;;;;;;;1.95;0.32;;;9.00;98.10;;;;;;4183277;28;20075;-55
2024/03/09 05:34:20;;;;;;;0.10;0.10;;;8.90;98.10;;;;;;4182821;28;20139;-61
2024/03/09 05:36:23;;;;;;;0.30;0.10;;;9.00;98.30;;;;;;4183081;28;20155;-55
2024/03/09 05:38:25;;;;;;;0.17;0.17;;;9.00;98.70;;;;;;4184278;28;20049;-58
2024/03/09 05:40:31;;;;;;;0.13;0.10;;;9.00;98.20;;;;;;4184033;28;20109;-56
2024/03/09 05:42:35;;;;;;;0.10;0.10;;;9.00;98.10;;;;;;4183075;28;20459;-61
2024/03/09 05:44:38;;;;;;;0.10;0.10;;;9.00;98.10;;;;;;4182991;28;20068;-59
2024/03/09 05:46:40;;;;;;;0.30;0.10;;;9.10;98.40;;;;;;4182840;28;20090;-55
2024/03/09 05:48:46;;;;;;;0.10;0.10;;;9.10;97.90;;;;;;4182563;28;20116;-56
2024/03/09 05:50:48;;;;;;;0.13;0.13;;;9.00;98.10;;;;;;4182238;28;20106;-56
2024/03/09 05:52:54;;;;;;;0.20;0.10;;;8.90;98.00;;;;;;4182420;28;20393;-55
2024/03/09 05:54:56;;;;;;;0.20;0.20;;;8.90;98.40;;;;;;4182533;28;20059;-59
2024/03/09 05:56:58;;;;;;;0.60;0.20;;;9.00;98.50;;;;;;4182665;28;20045;-55
2024/03/09 05:59:02;;;;;;;0.35;0.35;;;9.00;98.40;;;;;;4182306;28;20364;-55
2024/03/09 06:01:05;;;;;;;0.32;0.20;;;9.00;98.40;;;;;;4182484;28;20048;-60
2024/03/09 06:03:07;;;;;;;0.68;0.50;;;8.90;98.20;;;;;;4182458;28;20424;-55
2024/03/09 06:05:11;;;;;;;1.55;0.38;;;8.90;98.30;;;;;;4182206;28;20458;-60
2024/03/09 06:07:13;;;;;;;0.10;0.10;;;8.90;98.30;;;;;;4182214;28;20052;-56
2024/03/09 06:09:15;;;;;;;0.80;0.17;;;9.00;98.50;;;;;;4182155;28;20076;-55
2024/03/09 06:11:18;;;;;;;0.45;0.20;;;9.00;98.20;;;;;;4182075;28;20048;-56
2024/03/09 06:13:20;;;;;;;0.10;0.10;;;9.00;98.20;;;;;;4182102;28;20420;-55
2024/03/09 06:15:25;;;;;;;0.10;0.10;;;8.90;98.10;;;;;;4182173;28;20040;-56
2024/03/09 06:17:29;;;;;;;0.38;0.25;;;8.90;98.40;;;;;;4182224;28;20037;-55
2024/03/09 06:19:31;;;;;;;2.72;0.20;;;8.90;98.20;;;;;;4181584;28;20103;-56
2024/03/09 06:21:33;;;;;;;0.10;0.10;;;8.90;98.40;;;;;;4182374;28;20049;-56
2024/03/09 06:23:37;;;;;;;0.15;0.15;;;8.90;98.70;;;;;;4182144;28;20052;-56
2024/03/09 06:25:40;;;;;;;0.00;0.00;;;9.00;98.70;;;;;;4182260;28;20484;-55
2024/03/09 06:27:43;;;;;;;0.35;0.35;;;9.10;98.30;;;;;;4182414;28;20049;-55
2024/03/09 06:29:45;;;;;;;0.50;0.50;;;9.10;98.10;;;;;;4182190;28;20059;-56
2024/03/09 06:31:49;;;;;;;0.93;0.35;;;9.20;98.00;;;;;;4181620;28;20136;-56
2024/03/09 06:33:51;;;;;;;0.50;0.32;;;9.20;97.90;;;;;;4181347;28;20052;-56
2024/03/09 06:35:56;;;;;;;0.55;0.50;;;9.20;97.90;;;;;;4164120;28;20150;-55
2024/03/09 06:37:59;;;;;;;0.20;0.20;;;9.20;98.00;;;;;;4183445;28;20390;-64
2024/03/09 06:40:05;;;;;;;0.20;0.20;;;9.20;97.90;;;;;;4183309;28;20045;-61
2024/03/09 06:42:10;;;;;;;0.20;0.03;;;9.10;98.00;;;;;;4183204;28;20092;-58
2024/03/09 06:44:14;;;;;;;0.28;0.13;;;9.20;98.00;;;;;;4165890;28;20119;-56
2024/03/09 06:46:18;;;;;;;1.20;0.20;;;9.20;98.10;;;;;;4184148;28;20518;-63
2024/03/09 06:48:23;;;;;;;0.30;0.30;;;9.20;98.30;;;;;;4182446;28;20389;-64
2024/03/09 06:50:27;;;;;;;0.20;0.20;;;9.10;97.90;;;;;;4181678;28;20418;-55
2024/03/09 06:52:29;;;;;;;0.22;0.22;;;9.20;98.20;;;;;;4181547;28;20049;-55
2024/03/09 06:54:31;;;;;;;0.28;0.25;;;9.20;98.10;;;;;;4181748;28;20098;-56
2024/03/09 06:56:33;;;;;;;0.38;0.38;;;9.30;97.90;;;;;;4181548;28;20052;-63
2024/03/09 06:58:36;;;;;;;0.65;0.35;;;9.30;97.80;;;;;;4181965;28;20107;-62
2024/03/09 07:00:38;;;;;;;0.10;0.10;;;9.30;97.90;;;;;;4181685;28;20071;-55
2024/03/09 07:02:42;;;;;;;0.13;0.13;;;9.30;97.90;;;;;;4180965;28;20037;-56
2024/03/09 07:04:50;;;;;;;0.50;0.30;;;9.40;98.00;;;;;;4181120;28;20045;-56
2024/03/09 07:06:52;;;;;;;0.10;0.10;;;9.40;97.70;;;;;;4180925;28;20102;-56
2024/03/09 07:08:55;;;;;;;0.80;0.20;;;9.40;97.70;;;;;;4181020;28;20492;-54
2024/03/09 07:10:57;;;;;;;1.02;0.55;;;9.40;97.80;;;;;;4181071;28;20041;-56
2024/03/09 07:13:04;;;;;;;0.90;0.60;;;9.40;98.00;;;;;;4180933;28;20042;-55
2024/03/09 07:15:15;;;;;;;1.00;0.35;;;9.50;97.80;;;;;;4163325;28;20099;-55
2024/03/09 07:17:18;;;;;;;0.40;0.13;;;9.50;97.70;;;;;;4181037;28;20056;-55
2024/03/09 07:19:21;;;;;;;0.00;0.00;;;9.60;97.60;;;;;;4181247;28;20048;-54
2024/03/09 07:21:24;;;;;;;0.10;0.10;;;9.60;97.50;;;;;;4181120;28;20049;-55
2024/03/09 07:23:28;;;;;;;0.47;0.45;;;9.70;97.30;;;;;;4180975;28;20069;-56
2024/03/09 07:25:30;;;;;;;0.57;0.30;;;9.70;97.20;;;;;;4181165;28;20051;-55
2024/03/09 07:27:35;;;;;;;0.77;0.43;;;9.90;97.10;;;;;;4181017;28;20046;-55
2024/03/09 07:29:37;;;;;;;5.63;0.63;;;9.90;97.20;;;;;;4181040;28;20118;-55
2024/03/09 07:31:39;;;;;;;0.13;0.13;;;10.10;97.10;;;;;;4180194;28;20122;-54
2024/03/09 07:33:43;;;;;;;0.50;0.10;;;10.20;97.10;;;;;;4180677;28;20041;-55
2024/03/09 07:35:46;;;;;;;0.70;0.57;;;10.30;96.30;;;;;;4180638;28;20076;-55
2024/03/09 07:38:00;;;;;;;0.10;0.10;;;10.30;96.50;;;;;;4163038;28;20045;-55
2024/03/09 07:40:06;;;;;;;0.10;0.10;;;10.30;96.50;;;;;;4180782;28;20098;-55
2024/03/09 07:42:09;;;;;;;0.20;0.20;;;10.30;96.40;;;;;;4180748;28;20476;-56
2024/03/09 07:44:12;;;;;;;0.55;0.30;;;10.20;96.50;;;;;;4180708;28;20065;-55
2024/03/09 07:46:15;;;;;;;0.10;0.10;;;10.40;96.30;;;;;;4180384;28;20068;-55
2024/03/09 07:48:17;;;;;;;0.30;0.20;;;10.40;96.00;;;;;;4180711;28;20052;-56
2024/03/09 07:50:21;;;;;;;3.10;1.63;;;10.60;96.20;;;;;;4180139;28;20131;-56
2024/03/09 07:52:24;;;;;;;0.10;0.10;;;10.60;96.20;;;;;;4180464;28;20060;-56
2024/03/09 07:54:27;;;;;;;0.28;0.20;;;10.70;96.00;;;;;;4180475;28;20077;-55
2024/03/09 07:56:29;;;;;;;0.25;0.25;;;10.80;96.00;;;;;;4180822;28;20095;-57
2024/03/09 07:58:32;;;;;;;1.45;0.32;;;10.90;96.10;;;;;;4181362;28;20123;-56
2024/03/09 08:00:34;;;;;;;0.95;0.30;;;11.00;95.90;;;;;;4180761;28;20091;-58
2024/03/09 08:02:37;;;;;;;0.00;0.00;;;11.00;95.40;;;;;;4181106;28;20080;-58
2024/03/09 08:04:40;;;;;;;0.10;0.10;;;11.00;95.50;;;;;;4162673;28;20099;-55
2024/03/09 08:06:43;;;;;;;0.38;0.38;;;11.00;95.20;;;;;;4180526;28;20466;-55
2024/03/09 08:08:45;;;;;;;3.88;0.63;;;11.00;95.20;;;;;;4162544;28;20096;-55
2024/03/09 08:10:52;;;;;;;0.15;0.15;;;11.20;95.10;;;;;;4180783;28;20538;-55
2024/03/09 08:12:58;;;;;;;0.40;0.10;;;11.50;95.20;;;;;;4180781;28;20052;-56
2024/03/09 08:15:01;;;;;;;0.55;0.28;;;11.70;94.50;;;;;;4181802;28;20056;-65
2024/03/09 08:17:05;;;;;;;0.43;0.10;;;11.90;94.40;;;;;;4182344;28;20408;-57
2024/03/09 08:19:07;;;;;;;0.70;0.17;;;12.20;93.70;;;;;;4163850;28;20046;-59
2024/03/09 08:21:10;;;;;;;0.13;0.10;;;12.20;93.60;;;;;;4181570;28;20072;-56
2024/03/09 08:23:12;;;;;;;0.10;0.10;;;12.30;93.90;;;;;;4180172;28;20076;-56
2024/03/09 08:25:17;;;;;;;0.45;0.20;;;12.30;93.60;;;;;;4180290;28;20049;-56
2024/03/09 08:27:21;;;;;;;0.57;0.20;;;12.40;93.80;;;;;;4180011;28;20072;-56
2024/03/09 08:29:23;;;;;;;0.30;0.10;;;12.50;93.50;;;;;;4180012;28;20073;-55
2024/03/09 08:31:25;;;;;;;1.13;0.20;;;12.50;93.70;;;;;;4179778;28;20069;-56
2024/03/09 08:33:28;;;;;;;0.15;0.15;;;12.30;93.10;;;;;;4180722;28;20041;-57
2024/03/09 08:35:33;;;;;;;0.10;0.10;;;12.20;93.70;;;;;;4180521;28;20071;-59
2024/03/09 08:37:38;;;;;;;2.58;0.68;;;12.00;93.50;;;;;;4180272;28;20171;-56
2024/03/09 08:39:40;;;;;;;0.13;0.13;;;12.10;94.00;;;;;;4180306;28;20045;-56
2024/03/09 08:41:46;;;;;;;0.15;0.15;;;12.10;93.80;;;;;;4179950;28;20097;-55
2024/03/09 08:43:50;;;;;;;3.03;1.05;;;12.00;94.00;;;;;;4180678;28;20049;-56
2024/03/09 08:45:53;;;;;;;1.13;0.63;;;11.90;94.10;;;;;;4179803;28;20070;-55
2024/03/09 08:47:56;;;;;;;0.30;0.15;;;11.90;93.60;;;;;;4180089;28;20457;-55
2024/03/09 08:49:58;;;;;;;0.00;0.00;;;11.90;93.90;;;;;;4180088;28;20130;-55
2024/03/09 08:52:01;;;;;;;0.10;0.10;;;11.70;93.90;;;;;;4180105;28;20048;-56
2024/03/09 08:54:03;;;;;;;0.00;0.00;;;11.70;94.20;;;;;;4179996;28;20389;-56
2024/03/09 08:56:06;;;;;;;0.30;0.30;;;11.70;94.30;;;;;;4179905;28;20178;-55
2024/03/09 08:58:08;;;;;;;0.25;0.25;;;11.80;93.70;;;;;;4180316;28;20137;-57
2024/03/09 09:00:15;;;;;;;0.17;0.17;;;11.90;94.00;;;;;;4179738;28;20044;-55
2024/03/09 09:02:22;;;;;;;0.47;0.10;;;11.80;93.90;;;;;;4181028;28;20060;-55
2024/03/09 09:04:24;;;;;;;0.35;0.10;;;11.90;94.00;;;;;;4182910;28;20045;-56
2024/03/09 09:06:26;;;;;;;0.30;0.17;;;11.80;93.80;;;;;;4183409;28;20048;-54
2024/03/09 09:08:28;;;;;;;0.25;0.17;;;11.80;93.60;;;;;;4183106;28;20052;-56
2024/03/09 09:10:30;;;;;;;0.20;0.10;;;11.90;93.80;;;;;;4182832;28;20123;-55
2024/03/09 09:12:33;;;;;;;0.15;0.13;;;12.10;93.70;;;;;;4182766;28;20101;-55
2024/03/09 09:14:35;;;;;;;0.22;0.08;;;12.20;93.90;;;;;;4182533;28;20144;-55
2024/03/09 09:16:40;;;;;;;0.30;0.20;;;12.30;93.70;;;;;;4182991;28;20424;-55
2024/03/09 09:18:42;;;;;;;0.00;0.00;;;12.40;93.60;;;;;;4182790;28;20399;-55
2024/03/09 09:20:48;;;;;;;0.20;0.10;;;12.40;92.90;;;;;;4182507;28;20435;-56
2024/03/09 09:22:51;;;;;;;2.47;0.30;;;12.50;93.40;;;;;;4182749;28;20041;-55
2024/03/09 09:24:53;;;;;;;0.10;0.10;;;12.50;93.20;;;;;;4182997;28;20055;-55
2024/03/09 09:26:58;;;;;;;0.00;0.00;;;12.50;92.80;;;;;;4182789;28;20052;-55
2024/03/09 09:29:03;;;;;;;0.10;0.10;;;12.50;93.00;;;;;;4182880;28;20044;-56
2024/03/09 09:31:06;;;;;;;0.00;0.00;;;12.50;93.00;;;;;;4183963;28;20516;-55
2024/03/09 09:33:11;;;;;;;0.63;0.20;;;12.60;93.20;;;;;;4183221;28;20049;-61
2024/03/09 09:35:16;;;;;;;0.63;0.30;;;12.60;93.10;;;;;;4182893;28;20443;-55
2024/03/09 09:37:18;;;;;;;0.20;0.20;;;12.70;92.90;;;;;;4182800;28;20095;-56
2024/03/09 09:39:24;;;;;;;0.00;0.00;;;12.90;93.10;;;;;;4165431;28;20046;-56
2024/03/09 09:41:29;;;;;;;0.00;0.00;;;13.00;92.90;;;;;;4183797;28;20045;-57
2024/03/09 09:43:32;;;;;;;0.17;0.17;;;13.20;92.70;;;;;;4183414;28;20404;-55
2024/03/09 09:45:40;;;;;;;0.25;0.10;;;13.20;92.50;;;;;;4182706;28;20492;-56
2024/03/09 09:47:43;;;;;;;0.10;0.10;;;13.10;92.20;;;;;;4182535;28;20519;-56
2024/03/09 09:49:48;;;;;;;0.25;0.10;;;13.10;92.60;;;;;;4182420;28;20415;-55
2024/03/09 09:51:52;;;;;;;0.40;0.40;;;13.30;92.50;;;;;;4182273;28;20056;-56
2024/03/09 09:53:58;;;;;;;0.90;0.60;;;13.40;92.20;;;;;;4164666;28;20060;-56
2024/03/09 09:56:00;;;;;;;1.10;0.82;;;13.50;92.10;;;;;;4182438;28;20041;-56
2024/03/09 09:58:03;;;;;;;3.65;1.38;;;13.50;91.90;;;;;;4182285;28;20041;-56
2024/03/09 10:00:06;;;;;;;0.43;0.20;;;13.50;91.90;;;;;;4182474;28;20458;-54
2024/03/09 10:02:08;;;;;;;0.32;0.32;;;13.40;91.90;;;;;;4182394;28;20119;-55
2024/03/09 10:04:10;;;;;;;0.30;0.17;;;13.30;91.90;;;;;;4182157;28;20084;-55
2024/03/09 10:06:20;;;;;;;2.08;0.08;;;13.20;92.40;;;;;;4182785;28;20454;-57
2024/03/09 10:08:22;;;;;;;0.50;0.30;;;13.30;92.00;;;;;;4181938;28;20451;-59
2024/03/09 10:10:27;;;;;;;0.10;0.05;;;13.40;92.60;;;;;;4161389;28;20057;-55
2024/03/09 10:12:29;;;;;;;0.10;0.10;;;13.40;91.90;;;;;;4181556;28;20135;-55
2024/03/09 10:14:32;;;;;;;0.10;0.10;;;13.60;92.10;;;;;;4181727;28;20045;-55
2024/03/09 10:16:39;;;;;;;0.32;0.10;;;13.60;92.00;;;;;;4182329;28;20060;-56
2024/03/09 10:18:42;;;;;;;0.20;0.10;;;13.80;92.60;;;;;;4181812;28;20044;-56
2024/03/09 10:20:44;;;;;;;0.38;0.10;;;13.90;92.40;;;;;;4182312;28;20052;-55
2024/03/09 10:22:48;;;;;;;0.55;0.05;;;14.00;91.90;;;;;;4182193;28;20048;-55
2024/03/09 10:24:51;;;;;;;0.47;0.23;;;13.80;91.80;;;;;;4181900;28;20041;-56
2024/03/09 10:26:54;;;;;;;0.10;0.10;;;14.00;91.90;;;;;;4181579;28;20385;-56
2024/03/09 10:28:58;;;;;;;0.50;0.50;;;14.10;92.70;;;;;;4181921;28;20052;-56
2024/03/09 10:31:02;;;;;;;0.25;0.10;;;14.10;92.30;;;;;;4181621;28;20053;-55
2024/03/09 10:33:09;;;;;;;0.30;0.30;;;14.20;91.40;;;;;;4182533;28;20499;-61
2024/03/09 10:35:12;;;;;;;0.20;0.10;;;14.10;91.50;;;;;;4182723;28;20110;-53
2024/03/09 10:37:21;;;;;;;0.22;0.10;;;14.20;91.40;;;;;;4181512;28;20048;-55
2024/03/09 10:39:24;;;;;;;0.40;0.10;;;14.10;91.90;;;;;;4181218;28;20044;-54
2024/03/09 10:41:27;;;;;;;0.75;0.10;;;14.10;91.70;;;;;;4181468;28;20051;-54
2024/03/09 10:43:29;;;;;;;1.65;0.10;;;14.30;92.10;;;;;;4163903;28;20049;-56
2024/03/09 10:45:34;;;;;;;0.13;0.13;;;14.40;91.50;;;;;;4181429;28;20077;-54
2024/03/09 10:47:39;;;;;;;0.30;0.20;;;14.40;91.20;;;;;;4161703;28;20193;-55